Terminal Aerodrome Forecast
Issued by NWS

Home | Current Version | Previous Version | Text Only | Print | Product List | Glossary On
Versions: 1 2 3 4 5 6 7 8 9 10 11 12
000
FTUS44 KLIX 291700 RRA
TAFGPT
TAF
KGPT 291744Z 2918/3018 19008KT P6SM SCT250
     FM300400 26005KT P6SM BKN110
     FM300600 32007KT P6SM BKN035
     FM300900 36011KT P6SM BKN250
     FM301500 02011KT P6SM SCT250=

USA.gov is the U.S. government's official web portal to all federal, state and local government web resources and services.